createdAt,value
2023-04-27T00:01:34.739Z,7.20
2023-04-27T00:04:01.798Z,8.43
2023-04-27T00:06:28.409Z,7.00
2023-04-27T00:08:54.825Z,8.03
2023-04-27T00:11:21.488Z,7.50
2023-04-27T00:13:48.416Z,6.73
2023-04-27T00:16:14.809Z,8.40
2023-04-27T00:18:41.433Z,7.37
2023-04-27T00:21:09.401Z,7.53
2023-04-27T00:23:36.377Z,7.67
2023-04-27T00:26:02.886Z,7.00
2023-04-27T00:28:29.217Z,7.53
2023-04-27T00:30:58.380Z,8.30
2023-04-27T00:33:27.046Z,8.20
2023-04-27T00:35:53.362Z,9.13
2023-04-27T00:38:20.789Z,7.80
2023-04-27T00:40:47.112Z,8.50
2023-04-27T00:43:14.540Z,8.57
2023-04-27T00:45:44.098Z,8.87
2023-04-27T00:48:12.681Z,10.27
2023-04-27T00:50:40.569Z,9.67
2023-04-27T00:53:07.741Z,8.23
2023-04-27T00:55:34.163Z,8.63
2023-04-27T00:58:02.214Z,7.00
2023-04-27T01:00:28.790Z,7.33
2023-04-27T01:02:55.950Z,7.73
2023-04-27T01:05:25.338Z,7.67
2023-04-27T01:07:51.667Z,9.57
2023-04-27T01:10:19.638Z,8.00
2023-04-27T01:12:46.133Z,8.77
2023-04-27T01:15:12.545Z,7.67
2023-04-27T01:17:39.019Z,7.77
2023-04-27T01:20:07.421Z,8.07
2023-04-27T01:22:33.743Z,8.10
2023-04-27T01:25:00.107Z,8.10
2023-04-27T01:27:26.427Z,7.13
2023-04-27T01:29:52.755Z,8.53
2023-04-27T01:32:19.073Z,7.00
2023-04-27T01:34:45.407Z,8.53
2023-04-27T01:37:11.751Z,7.60
2023-04-27T01:39:38.495Z,8.57
2023-04-27T01:42:04.975Z,8.00
2023-04-27T01:44:31.527Z,8.17
2023-04-27T01:46:57.868Z,7.13
2023-04-27T01:49:24.238Z,8.53
2023-04-27T01:51:51.365Z,7.80
2023-04-27T01:54:17.685Z,8.40
2023-04-27T01:56:44.041Z,7.07
2023-04-27T01:59:10.580Z,7.30
2023-04-27T02:01:36.907Z,9.07
2023-04-27T02:04:04.418Z,10.77
2023-04-27T02:06:31.199Z,9.27
2023-04-27T02:08:57.879Z,9.73
2023-04-27T02:11:24.227Z,9.20
2023-04-27T02:13:50.753Z,11.17
2023-04-27T02:16:17.306Z,9.73
2023-04-27T02:18:44.518Z,10.60
2023-04-27T02:21:11.653Z,9.27
2023-04-27T02:23:38.023Z,10.00
2023-04-27T02:26:04.613Z,8.83
2023-04-27T02:28:31.107Z,8.77
2023-04-27T02:30:58.214Z,9.97
2023-04-27T02:33:25.036Z,10.20
2023-04-27T02:35:51.383Z,12.70
2023-04-27T02:38:17.750Z,9.73
2023-04-27T02:40:44.197Z,10.07
2023-04-27T02:43:10.510Z,9.83
2023-04-27T02:45:38.293Z,9.13
2023-04-27T02:48:05.998Z,12.20
2023-04-27T02:50:33.712Z,9.47
2023-04-27T02:53:00.271Z,9.60
2023-04-27T02:55:27.441Z,10.00
2023-04-27T02:57:53.806Z,10.70
2023-04-27T03:00:20.326Z,8.50
2023-04-27T03:02:46.752Z,11.33
2023-04-27T03:05:13.222Z,11.00
2023-04-27T03:07:39.573Z,12.33
2023-04-27T03:10:06.268Z,10.90
2023-04-27T03:12:32.643Z,9.67
2023-04-27T03:14:59.684Z,15.77
2023-04-27T03:17:26.204Z,18.23
2023-04-27T03:19:52.898Z,11.00
2023-04-27T03:22:20.107Z,22.30
2023-04-27T03:24:46.662Z,11.67
2023-04-27T03:27:12.993Z,10.10
2023-04-27T03:29:39.354Z,10.10
2023-04-27T03:32:06.367Z,33.33
2023-04-27T03:34:32.921Z,13.10
2023-04-27T03:36:59.250Z,11.90
2023-04-27T03:39:25.901Z,11.83
2023-04-27T03:41:52.213Z,19.40
2023-04-27T03:44:18.678Z,10.83
2023-04-27T03:46:45.043Z,11.07
2023-04-27T03:49:12.155Z,9.93
2023-04-27T03:51:42.217Z,9.93
2023-04-27T03:54:09.897Z,9.77
2023-04-27T03:56:36.989Z,10.00
2023-04-27T03:59:04.688Z,11.10
2023-04-27T04:01:33.903Z,14.63
2023-04-27T04:04:00.557Z,17.27
2023-04-27T04:06:27.894Z,26.83
2023-04-27T04:08:55.801Z,17.73
2023-04-27T04:11:22.414Z,12.10
2023-04-27T04:13:50.609Z,9.17
2023-04-27T04:16:17.026Z,15.00
2023-04-27T04:18:43.389Z,11.07
2023-04-27T04:21:13.111Z,10.03
2023-04-27T04:23:41.065Z,10.83
2023-04-27T04:26:08.691Z,12.50
2023-04-27T04:28:35.672Z,11.20
2023-04-27T04:31:02.708Z,11.17
2023-04-27T04:33:29.115Z,13.07
2023-04-27T04:35:55.618Z,11.73
2023-04-27T04:38:23.345Z,10.20
2023-04-27T04:40:50.488Z,9.33
2023-04-27T04:43:16.940Z,9.53
2023-04-27T04:45:43.627Z,11.00
2023-04-27T04:48:14.425Z,11.97
2023-04-27T04:50:41.951Z,9.30
2023-04-27T04:53:08.335Z,13.53
2023-04-27T04:55:34.724Z,10.17
2023-04-27T04:58:01.684Z,10.93
2023-04-27T05:00:28.140Z,12.00
2023-04-27T05:02:54.622Z,17.43
2023-04-27T05:05:21.266Z,13.67
2023-04-27T05:07:47.607Z,14.67
2023-04-27T05:10:13.966Z,15.67
2023-04-27T05:12:40.569Z,13.60
2023-04-27T05:15:07.811Z,15.53
2023-04-27T05:17:34.129Z,14.07
2023-04-27T05:20:00.830Z,14.03
2023-04-27T05:22:27.284Z,14.33
2023-04-27T05:24:53.670Z,16.10
2023-04-27T05:27:20.060Z,18.87
2023-04-27T05:29:46.464Z,20.33
2023-04-27T05:32:12.778Z,12.37
2023-04-27T05:34:39.151Z,12.37
2023-04-27T05:37:05.491Z,18.97
2023-04-27T05:39:31.884Z,12.67
2023-04-27T05:41:58.758Z,22.70
2023-04-27T05:44:28.211Z,24.60
2023-04-27T05:46:55.698Z,18.33
2023-04-27T05:49:22.255Z,12.73
2023-04-27T05:51:48.784Z,21.87
2023-04-27T05:54:15.383Z,18.43
2023-04-27T05:56:41.762Z,28.97
2023-04-27T05:59:08.137Z,12.97
2023-04-27T06:01:34.465Z,14.63
2023-04-27T06:04:01.306Z,15.47
2023-04-27T06:06:28.588Z,13.17
2023-04-27T06:08:54.898Z,16.40
2023-04-27T06:11:21.963Z,16.57
2023-04-27T06:13:48.280Z,16.20
2023-04-27T06:16:14.641Z,11.97
2023-04-27T06:18:40.974Z,13.13
2023-04-27T06:21:07.524Z,14.60
2023-04-27T06:23:33.834Z,13.67
2023-04-27T06:26:00.268Z,11.30
2023-04-27T06:28:26.694Z,11.40
2023-04-27T06:30:53.768Z,10.37
2023-04-27T06:33:20.096Z,19.40
2023-04-27T06:35:47.523Z,9.57
2023-04-27T06:38:14.074Z,8.60
2023-04-27T06:40:40.444Z,8.63
2023-04-27T06:43:06.809Z,7.37
2023-04-27T06:45:33.214Z,7.83
2023-04-27T06:47:59.601Z,10.67
2023-04-27T06:50:26.141Z,6.63
2023-04-27T06:52:52.449Z,7.17
2023-04-27T06:55:18.930Z,8.10
2023-04-27T06:57:45.513Z,8.13
2023-04-27T07:00:13.506Z,6.67
2023-04-27T07:02:40.151Z,7.03
2023-04-27T07:05:06.799Z,7.60
2023-04-27T07:07:33.125Z,7.00
2023-04-27T07:09:59.448Z,7.63
2023-04-27T07:12:25.761Z,7.23
2023-04-27T07:14:52.095Z,6.93
2023-04-27T07:17:18.448Z,6.87
2023-04-27T07:19:44.813Z,7.47
2023-04-27T07:22:11.638Z,6.60
2023-04-27T07:24:37.968Z,10.03
2023-04-27T07:27:04.349Z,5.17
2023-04-27T07:29:30.956Z,6.43
2023-04-27T07:31:57.731Z,6.80
2023-04-27T07:34:24.238Z,5.80
2023-04-27T07:36:53.944Z,5.57
2023-04-27T07:39:20.724Z,5.60
2023-04-27T07:41:48.069Z,5.13
2023-04-27T07:44:15.056Z,4.57
2023-04-27T07:46:41.398Z,4.60
2023-04-27T07:49:07.778Z,6.07
2023-04-27T07:51:34.484Z,4.53
2023-04-27T07:54:02.391Z,5.00
2023-04-27T07:56:28.732Z,5.47
2023-04-27T07:58:55.038Z,4.33
2023-04-27T08:01:21.877Z,5.10
2023-04-27T08:03:48.596Z,9.57
2023-04-27T08:06:16.254Z,4.90
2023-04-27T08:08:42.732Z,4.60
2023-04-27T08:11:12.609Z,7.67
2023-04-27T08:13:38.953Z,3.97
2023-04-27T08:16:05.924Z,5.30
2023-04-27T08:18:32.633Z,4.53
2023-04-27T08:20:59.057Z,4.70
2023-04-27T08:23:29.422Z,6.80
2023-04-27T08:25:55.812Z,4.13
2023-04-27T08:28:23.324Z,4.80
2023-04-27T08:30:49.800Z,4.67
2023-04-27T08:33:16.177Z,5.37
2023-04-27T08:35:42.562Z,5.40
2023-04-27T08:38:08.960Z,5.67
2023-04-27T08:40:35.351Z,5.17
2023-04-27T08:43:01.710Z,5.57
2023-04-27T08:45:28.806Z,13.23
2023-04-27T08:47:55.619Z,5.60
2023-04-27T08:50:24.069Z,4.70
2023-04-27T08:52:50.893Z,4.27
2023-04-27T08:55:17.370Z,4.70
2023-04-27T08:57:54.812Z,5.37
2023-04-27T09:00:21.417Z,4.27
2023-04-27T09:02:49.015Z,14.47
2023-04-27T09:05:23.470Z,5.13
2023-04-27T09:08:08.085Z,4.07
2023-04-27T09:11:03.814Z,5.20
2023-04-27T09:13:37.806Z,5.40
2023-04-27T09:16:04.659Z,4.13
2023-04-27T09:18:35.203Z,3.80
2023-04-27T09:21:01.515Z,5.50
2023-04-27T09:23:36.515Z,9.77
2023-04-27T09:26:10.724Z,4.80
2023-04-27T09:28:40.378Z,7.20
2023-04-27T09:31:09.272Z,4.70
2023-04-27T09:33:36.526Z,3.80
2023-04-27T09:36:06.985Z,3.70
2023-04-27T09:38:33.934Z,3.87
2023-04-27T09:41:01.057Z,5.80
2023-04-27T09:43:28.716Z,4.40
2023-04-27T09:45:56.125Z,4.93
2023-04-27T09:48:24.473Z,14.17
2023-04-27T09:50:52.354Z,6.37
2023-04-27T09:53:23.385Z,4.60
2023-04-27T09:56:21.710Z,5.20
2023-04-27T09:59:14.345Z,5.13
2023-04-27T10:01:49.998Z,4.23
2023-04-27T10:04:42.484Z,6.40
2023-04-27T10:07:12.756Z,5.07
2023-04-27T10:09:45.505Z,5.93
2023-04-27T10:12:28.198Z,4.53
2023-04-27T10:14:59.598Z,7.00
2023-04-27T10:17:33.216Z,4.40
2023-04-27T10:20:03.856Z,4.37
2023-04-27T10:22:41.849Z,8.00
2023-04-27T10:25:18.793Z,4.93
2023-04-27T10:27:55.113Z,4.63
2023-04-27T10:30:25.789Z,8.13
2023-04-27T10:32:54.301Z,6.27
2023-04-27T10:35:22.247Z,5.73
2023-04-27T10:37:48.856Z,5.40
2023-04-27T10:40:19.245Z,4.43
2023-04-27T10:42:49.136Z,4.70
2023-04-27T10:45:29.249Z,4.77
2023-04-27T10:48:00.548Z,5.50
2023-04-27T10:50:27.728Z,4.90
2023-04-27T10:52:54.086Z,5.17
2023-04-27T10:55:22.560Z,5.60
2023-04-27T10:57:53.982Z,5.13
2023-04-27T11:00:25.226Z,5.80
2023-04-27T11:02:53.636Z,7.10
2023-04-27T11:05:24.678Z,5.20
2023-04-27T11:07:52.406Z,5.07
2023-04-27T11:10:19.421Z,9.07
2023-04-27T11:12:46.918Z,5.27
2023-04-27T11:15:14.066Z,9.63
2023-04-27T11:17:40.988Z,5.20
2023-04-27T11:20:10.914Z,6.00
2023-04-27T11:22:45.784Z,5.37
2023-04-27T11:25:12.464Z,5.27
2023-04-27T11:27:41.606Z,6.23
2023-04-27T11:30:19.962Z,6.07
2023-04-27T11:32:46.352Z,8.67
2023-04-27T11:35:13.616Z,5.67
2023-04-27T11:37:39.944Z,5.90
2023-04-27T11:40:11.164Z,5.53
2023-04-27T11:42:37.612Z,6.23
2023-04-27T11:45:06.376Z,5.77
2023-04-27T11:47:35.172Z,5.47
2023-04-27T11:50:05.484Z,5.17
2023-04-27T11:52:33.412Z,5.70
2023-04-27T11:55:01.792Z,5.70
2023-04-27T11:57:30.445Z,6.73
2023-04-27T12:00:01.442Z,5.27
2023-04-27T12:02:31.743Z,6.00
2023-04-27T12:05:01.674Z,8.17
2023-04-27T12:07:28.186Z,5.63
2023-04-27T12:09:54.530Z,6.87
2023-04-27T12:12:23.976Z,17.47
2023-04-27T12:14:51.837Z,6.03
2023-04-27T12:17:18.790Z,6.23
2023-04-27T12:19:45.319Z,5.73
2023-04-27T12:22:11.869Z,6.83
2023-04-27T12:24:38.272Z,5.93
2023-04-27T12:27:04.990Z,6.30
2023-04-27T12:29:34.192Z,6.77
2023-04-27T12:32:00.782Z,5.80
2023-04-27T12:34:28.293Z,13.10
2023-04-27T12:36:54.662Z,6.37
2023-04-27T12:39:24.878Z,6.87
2023-04-27T12:41:51.596Z,6.63
2023-04-27T12:44:19.802Z,6.80
2023-04-27T12:46:48.088Z,5.50
2023-04-27T12:49:15.384Z,6.57
2023-04-27T12:51:42.375Z,6.00
2023-04-27T12:54:10.015Z,8.20
2023-04-27T12:56:36.457Z,7.17
2023-04-27T12:59:02.858Z,6.17
2023-04-27T13:01:29.316Z,7.47
2023-04-27T13:03:58.730Z,7.63
2023-04-27T13:06:25.437Z,15.57
2023-04-27T13:08:51.924Z,6.43
2023-04-27T13:11:18.717Z,6.20
2023-04-27T13:13:45.627Z,10.57
2023-04-27T13:16:12.373Z,5.50
2023-04-27T13:18:40.594Z,8.33
2023-04-27T13:21:08.317Z,5.70
2023-04-27T13:23:34.936Z,7.03
2023-04-27T13:26:01.384Z,7.47
2023-04-27T13:28:27.725Z,6.30
2023-04-27T13:30:54.201Z,6.37
2023-04-27T13:33:23.109Z,6.03
2023-04-27T13:35:53.560Z,8.37
2023-04-27T13:38:20.220Z,6.17
2023-04-27T13:40:46.644Z,6.03
2023-04-27T13:43:12.998Z,9.80
2023-04-27T13:45:39.701Z,7.10
2023-04-27T13:48:06.282Z,9.20
2023-04-27T13:50:33.018Z,6.77
2023-04-27T13:53:01.719Z,7.00
2023-04-27T13:55:28.625Z,14.70
2023-04-27T13:57:54.961Z,6.60
2023-04-27T14:00:21.629Z,8.50
2023-04-27T14:02:48.057Z,8.30
2023-04-27T14:05:14.589Z,7.20
2023-04-27T14:07:40.922Z,6.43
2023-04-27T14:10:07.910Z,9.87
2023-04-27T14:12:34.335Z,7.50
2023-04-27T14:15:00.681Z,6.63
2023-04-27T14:17:27.009Z,8.20
2023-04-27T14:19:53.377Z,6.60
2023-04-27T14:22:19.839Z,12.93
2023-04-27T14:24:46.441Z,8.80
2023-04-27T14:27:12.779Z,7.17
2023-04-27T14:29:39.139Z,8.53
2023-04-27T14:32:06.174Z,7.50
2023-04-27T14:34:32.587Z,7.27
2023-04-27T14:36:58.904Z,6.93
2023-04-27T14:39:27.386Z,7.43
2023-04-27T14:41:54.187Z,7.43
2023-04-27T14:44:20.689Z,8.43
2023-04-27T14:46:47.106Z,8.97
2023-04-27T14:49:13.724Z,8.23
2023-04-27T14:51:42.739Z,8.10
2023-04-27T14:54:09.822Z,7.93
2023-04-27T14:56:36.567Z,7.90
2023-04-27T14:59:03.170Z,7.67
2023-04-27T15:01:29.674Z,8.23
2023-04-27T15:03:57.788Z,13.13
2023-04-27T15:06:27.916Z,8.43
2023-04-27T15:08:55.121Z,8.17
2023-04-27T15:11:21.946Z,8.00
2023-04-27T15:13:48.455Z,7.73
2023-04-27T15:16:14.906Z,12.50
2023-04-27T15:18:42.091Z,8.03
2023-04-27T15:21:08.405Z,8.77
2023-04-27T15:23:36.936Z,8.30
2023-04-27T15:26:03.327Z,10.50
2023-04-27T15:28:29.699Z,10.07
2023-04-27T15:30:56.155Z,8.07
2023-04-27T15:33:22.565Z,9.47
2023-04-27T15:35:49.929Z,9.20
2023-04-27T15:38:17.763Z,9.40
2023-04-27T15:40:44.192Z,8.63
2023-04-27T15:43:10.582Z,8.10
2023-04-27T15:45:37.048Z,9.17
2023-04-27T15:48:03.794Z,11.17
2023-04-27T15:50:30.385Z,8.27
2023-04-27T15:52:57.055Z,7.47
2023-04-27T15:55:23.567Z,7.13
2023-04-27T15:57:50.854Z,7.87
2023-04-27T16:00:18.777Z,8.87
2023-04-27T16:02:46.195Z,8.67
2023-04-27T16:05:13.012Z,11.83
2023-04-27T16:07:39.938Z,9.77
2023-04-27T16:10:07.258Z,10.03
2023-04-27T16:12:33.696Z,9.03
2023-04-27T16:15:00.752Z,8.20
2023-04-27T16:17:28.816Z,8.93
2023-04-27T16:19:55.199Z,11.00
2023-04-27T16:22:22.109Z,10.27
2023-04-27T16:24:48.490Z,9.60
2023-04-27T16:27:17.087Z,10.90
2023-04-27T16:29:43.610Z,9.30
2023-04-27T16:32:10.939Z,9.10
2023-04-27T16:34:38.035Z,9.13
2023-04-27T16:37:04.718Z,9.03
2023-04-27T16:39:31.097Z,9.30
2023-04-27T16:41:57.411Z,7.63
2023-04-27T16:44:23.797Z,9.03
2023-04-27T16:46:52.985Z,15.00
2023-04-27T16:49:19.365Z,9.83
2023-04-27T16:51:45.709Z,8.77
2023-04-27T16:54:12.692Z,11.33
2023-04-27T16:56:39.071Z,10.67
2023-04-27T16:59:05.418Z,10.53
2023-04-27T17:01:31.951Z,9.53
2023-04-27T17:04:01.960Z,9.83
2023-04-27T17:06:29.809Z,9.60
2023-04-27T17:08:56.925Z,11.07
2023-04-27T17:11:23.698Z,9.50
2023-04-27T17:13:50.509Z,12.70
2023-04-27T17:16:17.934Z,8.60
2023-04-27T17:18:45.647Z,9.17
2023-04-27T17:21:12.325Z,10.17
2023-04-27T17:23:41.145Z,16.23
2023-04-27T17:26:07.789Z,9.13
2023-04-27T17:28:35.147Z,12.47
2023-04-27T17:31:01.808Z,13.20
2023-04-27T17:33:28.209Z,11.20
2023-04-27T17:35:54.852Z,11.47
2023-04-27T17:38:21.232Z,9.83
2023-04-27T17:40:47.553Z,10.73
2023-04-27T17:43:13.946Z,10.40
2023-04-27T17:45:40.406Z,9.77
2023-04-27T17:48:07.292Z,10.00
2023-04-27T17:50:35.841Z,11.13
2023-04-27T17:53:02.174Z,9.93
2023-04-27T17:55:29.065Z,9.63
2023-04-27T17:57:55.569Z,12.53
2023-04-27T18:00:22.236Z,9.97
2023-04-27T18:02:49.596Z,11.17
2023-04-27T18:05:17.016Z,10.37
2023-04-27T18:07:43.465Z,14.77
2023-04-27T18:10:09.956Z,11.60
2023-04-27T18:12:36.436Z,10.37
2023-04-27T18:15:05.586Z,12.17
2023-04-27T18:17:33.392Z,18.73
2023-04-27T18:20:08.077Z,11.33
2023-04-27T18:22:39.213Z,11.93
2023-04-27T18:25:06.230Z,11.07
2023-04-27T18:27:32.905Z,10.43
2023-04-27T18:29:59.486Z,13.83
2023-04-27T18:32:25.919Z,12.97
2023-04-27T18:34:52.309Z,11.77
2023-04-27T18:37:18.751Z,12.17
2023-04-27T18:39:45.186Z,14.73
2023-04-27T18:42:11.651Z,11.67
2023-04-27T18:44:38.034Z,11.83
2023-04-27T18:47:04.575Z,9.67
2023-04-27T18:49:31.043Z,14.80
2023-04-27T18:51:57.431Z,11.10
2023-04-27T18:54:23.808Z,12.37
2023-04-27T18:56:52.934Z,12.37
2023-04-27T18:59:19.993Z,13.97
2023-04-27T19:01:46.442Z,14.80
2023-04-27T19:04:13.286Z,12.27
2023-04-27T19:06:39.788Z,10.40
2023-04-27T19:09:06.221Z,14.90
2023-04-27T19:11:32.599Z,15.70
2023-04-27T19:13:59.102Z,14.77
2023-04-27T19:16:25.670Z,10.73
2023-04-27T19:18:52.099Z,13.67
2023-04-27T19:21:18.524Z,11.83
2023-04-27T19:23:45.349Z,11.53
2023-04-27T19:26:13.942Z,13.20
2023-04-27T19:28:40.835Z,14.53
2023-04-27T19:31:07.521Z,15.73
2023-04-27T19:33:33.951Z,17.47
2023-04-27T19:36:00.498Z,12.67
2023-04-27T19:38:26.960Z,12.27
2023-04-27T19:40:53.447Z,12.97
2023-04-27T19:43:19.815Z,11.90
2023-04-27T19:45:48.699Z,12.20
2023-04-27T19:48:15.534Z,14.17
2023-04-27T19:50:42.276Z,16.00
2023-04-27T19:53:08.811Z,16.77
2023-04-27T19:55:35.192Z,11.77
2023-04-27T19:58:01.525Z,16.83
2023-04-27T20:00:28.024Z,12.00
2023-04-27T20:02:54.628Z,12.87
2023-04-27T20:05:21.423Z,17.03
2023-04-27T20:07:49.916Z,12.00
2023-04-27T20:10:16.600Z,12.87
2023-04-27T20:12:55.406Z,15.03
2023-04-27T20:15:23.082Z,14.63
2023-04-27T20:17:49.431Z,12.47
2023-04-27T20:20:16.069Z,16.17
2023-04-27T20:22:42.662Z,16.10
2023-04-27T20:25:09.425Z,12.60
2023-04-27T20:27:36.098Z,11.20
2023-04-27T20:30:02.567Z,13.77
2023-04-27T20:32:29.053Z,12.40
2023-04-27T20:34:55.544Z,11.47
2023-04-27T20:37:23.024Z,12.93
2023-04-27T20:39:49.479Z,11.73
2023-04-27T20:42:15.983Z,14.20
2023-04-27T20:44:42.387Z,11.00
2023-04-27T20:47:08.736Z,12.60
2023-04-27T20:49:35.767Z,11.83
2023-04-27T20:52:02.959Z,12.07
2023-04-27T20:54:32.575Z,12.60
2023-04-27T20:57:01.362Z,12.67
2023-04-27T20:59:27.746Z,12.27
2023-04-27T21:01:54.088Z,13.33
2023-04-27T21:04:20.961Z,11.73
2023-04-27T21:06:47.552Z,14.07
2023-04-27T21:09:13.909Z,17.10
2023-04-27T21:11:40.289Z,18.40
2023-04-27T21:14:06.679Z,11.67
2023-04-27T21:16:33.055Z,11.47
2023-04-27T21:18:59.468Z,12.50
2023-04-27T21:21:26.400Z,14.23
2023-04-27T21:24:04.124Z,11.63
2023-04-27T21:26:33.496Z,12.67
2023-04-27T21:29:00.042Z,11.57
2023-04-27T21:31:29.290Z,11.47
2023-04-27T21:33:55.754Z,13.07
2023-04-27T21:36:22.109Z,18.67
2023-04-27T21:38:48.513Z,11.50
2023-04-27T21:41:16.495Z,13.83
2023-04-27T21:43:43.322Z,12.67
2023-04-27T21:46:09.688Z,14.20
2023-04-27T21:48:36.241Z,11.07
2023-04-27T21:51:03.145Z,11.53
2023-04-27T21:53:30.484Z,10.30
2023-04-27T21:55:57.180Z,11.63
2023-04-27T21:58:24.178Z,13.33
2023-04-27T22:00:50.779Z,12.53
2023-04-27T22:03:17.604Z,19.60
2023-04-27T22:05:45.155Z,11.97
2023-04-27T22:08:12.038Z,14.50
2023-04-27T22:10:38.456Z,14.13
2023-04-27T22:13:17.602Z,11.90
2023-04-27T22:15:45.978Z,11.60
2023-04-27T22:18:14.150Z,10.97
2023-04-27T22:20:40.664Z,14.77
2023-04-27T22:23:07.491Z,13.20
2023-04-27T22:25:33.960Z,12.00
2023-04-27T22:28:01.455Z,11.00
2023-04-27T22:30:28.913Z,15.73
2023-04-27T22:32:56.090Z,11.27
2023-04-27T22:35:26.963Z,15.93
2023-04-27T22:37:58.860Z,11.60
2023-04-27T22:40:26.064Z,11.73
2023-04-27T22:42:53.417Z,11.77
2023-04-27T22:45:19.818Z,15.40
2023-04-27T22:47:46.376Z,15.17
2023-04-27T22:50:13.404Z,13.53
2023-04-27T22:52:42.885Z,10.73
2023-04-27T22:55:10.731Z,12.60
2023-04-27T22:57:38.110Z,18.00
2023-04-27T23:00:05.354Z,12.40
2023-04-27T23:02:32.001Z,11.77
2023-04-27T23:05:01.474Z,12.27
2023-04-27T23:07:28.342Z,11.33
2023-04-27T23:09:54.776Z,11.43
2023-04-27T23:12:21.934Z,12.53
2023-04-27T23:14:48.290Z,11.17
2023-04-27T23:17:17.356Z,11.37
2023-04-27T23:19:43.705Z,12.97
2023-04-27T23:22:10.047Z,17.47
2023-04-27T23:24:36.413Z,12.67
2023-04-27T23:27:02.858Z,12.87
2023-04-27T23:29:30.760Z,12.30
2023-04-27T23:32:04.216Z,14.70
2023-04-27T23:34:34.531Z,11.70
2023-04-27T23:37:01.009Z,13.30
2023-04-27T23:39:28.446Z,12.43
2023-04-27T23:41:54.815Z,13.47
2023-04-27T23:44:21.334Z,11.43
2023-04-27T23:46:47.702Z,11.40
2023-04-27T23:49:14.108Z,14.23
2023-04-27T23:51:40.598Z,16.33
2023-04-27T23:54:07.182Z,19.07
2023-04-27T23:56:33.525Z,17.63
2023-04-27T23:58:59.900Z,12.80
